createdAt,value
2018-12-27T00:01:27.634Z,102793.86
2018-12-27T00:03:56.187Z,102797.61
2018-12-27T00:06:24.778Z,102797.78
2018-12-27T00:08:53.358Z,102793.91
2018-12-27T00:11:21.874Z,102790.47
2018-12-27T00:13:50.571Z,102792.87
2018-12-27T00:16:19.173Z,102788.41
2018-12-27T00:18:47.706Z,102794.20
2018-12-27T00:21:16.255Z,102801.92
2018-12-27T00:23:44.871Z,102800.84
2018-12-27T00:26:13.444Z,102788.77
2018-12-27T00:28:41.950Z,102792.09
2018-12-27T00:31:10.582Z,102791.00
2018-12-27T00:33:39.196Z,102783.48
2018-12-27T00:36:07.845Z,102782.13
2018-12-27T00:38:36.543Z,102782.59
2018-12-27T00:41:05.121Z,102784.62
2018-12-27T00:43:33.713Z,102776.57
2018-12-27T00:46:02.412Z,102780.55
2018-12-27T00:48:31.034Z,102785.33
2018-12-27T00:50:59.607Z,102780.47
2018-12-27T00:53:28.474Z,102780.77
2018-12-27T00:55:57.100Z,102780.27
2018-12-27T00:58:25.667Z,102770.09
2018-12-27T01:00:54.266Z,102768.20
2018-12-27T01:03:22.835Z,102767.62
2018-12-27T01:05:51.467Z,102767.11
2018-12-27T01:08:20.082Z,102768.76
2018-12-27T01:10:48.654Z,102759.17
2018-12-27T01:13:17.233Z,102755.20
2018-12-27T01:15:45.835Z,102753.44
2018-12-27T01:18:14.602Z,102749.41
2018-12-27T01:20:43.219Z,102750.02
2018-12-27T01:23:11.795Z,102751.27
2018-12-27T01:25:40.425Z,102754.35
2018-12-27T01:28:08.987Z,102739.33
2018-12-27T01:30:37.590Z,102748.95
2018-12-27T01:33:06.229Z,102748.18
2018-12-27T01:35:34.827Z,102744.37
2018-12-27T01:38:03.405Z,102754.43
2018-12-27T01:40:31.995Z,102755.77
2018-12-27T01:43:00.707Z,102755.20
2018-12-27T01:45:29.319Z,102740.95
2018-12-27T01:47:57.884Z,102740.61
2018-12-27T01:50:26.467Z,102736.62
2018-12-27T01:52:55.863Z,102736.27
2018-12-27T01:55:24.463Z,102737.47
2018-12-27T01:57:53.083Z,102733.44
2018-12-27T02:00:21.696Z,102729.17
2018-12-27T02:02:50.310Z,102725.52
2018-12-27T02:05:18.873Z,102727.84
2018-12-27T02:07:48.502Z,102728.75
2018-12-27T02:10:17.096Z,102731.29
2018-12-27T02:12:45.698Z,102731.72
2018-12-27T02:15:14.260Z,102735.99
2018-12-27T02:17:42.888Z,102738.20
2018-12-27T02:20:11.480Z,102732.66
2018-12-27T02:22:40.114Z,102731.77
2018-12-27T02:25:08.723Z,102731.59
2018-12-27T02:27:37.408Z,102730.56
2018-12-27T02:30:05.974Z,102729.02
2018-12-27T02:32:34.563Z,102727.38
2018-12-27T02:35:03.261Z,102714.83
2018-12-27T02:37:31.853Z,102718.50
2018-12-27T02:40:00.508Z,102718.50
2018-12-27T02:42:29.083Z,102720.03
2018-12-27T02:44:57.696Z,102723.27
2018-12-27T02:47:26.271Z,102721.50
2018-12-27T02:49:54.880Z,102723.33
2018-12-27T02:52:23.544Z,102715.39
2018-12-27T02:54:52.145Z,102711.48
2018-12-27T02:57:20.711Z,102706.21
2018-12-27T02:59:49.275Z,102706.97
2018-12-27T03:02:18.042Z,102703.92
2018-12-27T03:04:46.598Z,102700.64
2018-12-27T03:07:15.204Z,102701.19
2018-12-27T03:09:43.779Z,102699.69
2018-12-27T03:12:12.411Z,102707.91
2018-12-27T03:14:41.003Z,102696.47
2018-12-27T03:17:09.638Z,102687.28
2018-12-27T03:19:38.239Z,102690.88
2018-12-27T03:22:06.914Z,102703.00
2018-12-27T03:24:35.513Z,102700.17
2018-12-27T03:27:04.072Z,102695.20
2018-12-27T03:29:32.653Z,102691.05
2018-12-27T03:32:01.474Z,102687.16
2018-12-27T03:34:30.098Z,102683.41
2018-12-27T03:36:58.682Z,102676.78
2018-12-27T03:39:27.273Z,102668.45
2018-12-27T03:41:55.849Z,102668.02
2018-12-27T03:44:24.834Z,102666.16
2018-12-27T03:46:53.532Z,102670.01
2018-12-27T03:49:22.230Z,102664.41
2018-12-27T03:51:50.806Z,102668.05
2018-12-27T03:54:19.398Z,102673.17
2018-12-27T03:56:48.073Z,102666.31
2018-12-27T03:59:16.659Z,102666.76
2018-12-27T04:01:45.284Z,102664.62
2018-12-27T04:04:13.854Z,102663.03
2018-12-27T04:06:42.412Z,102656.64
2018-12-27T04:09:11.028Z,102651.66
2018-12-27T04:11:39.600Z,102646.67
2018-12-27T04:14:08.206Z,102639.97
2018-12-27T04:16:36.660Z,102644.82
2018-12-27T04:19:05.269Z,102639.30
2018-12-27T04:21:33.927Z,102640.55
2018-12-27T04:24:02.783Z,102634.38
2018-12-27T04:26:31.366Z,102639.75
2018-12-27T04:28:59.792Z,102633.60
2018-12-27T04:31:28.618Z,102636.36
2018-12-27T04:33:57.591Z,102634.84
2018-12-27T04:36:26.563Z,102630.48
2018-12-27T04:38:55.015Z,102630.48
2018-12-27T04:41:23.585Z,102627.84
2018-12-27T04:43:52.677Z,102634.94
2018-12-27T04:46:21.274Z,102633.47
2018-12-27T04:48:49.799Z,102628.25
2018-12-27T04:51:18.424Z,102635.11
2018-12-27T04:53:46.906Z,102624.75
2018-12-27T04:56:15.522Z,102631.34
2018-12-27T04:58:43.976Z,102629.80
2018-12-27T05:01:12.594Z,102623.00
2018-12-27T05:03:41.152Z,102625.51
2018-12-27T05:06:09.610Z,102626.22
2018-12-27T05:08:38.174Z,102618.70
2018-12-27T05:11:06.632Z,102625.58
2018-12-27T05:13:35.188Z,102617.67
2018-12-27T05:16:03.701Z,102619.61
2018-12-27T05:18:32.276Z,102619.09
2018-12-27T05:21:00.883Z,102615.42
2018-12-27T05:23:29.507Z,102617.79
2018-12-27T05:25:58.057Z,102618.49
2018-12-27T05:28:26.594Z,102615.59
2018-12-27T05:30:55.152Z,102624.38
2018-12-27T05:33:23.661Z,102623.84
2018-12-27T05:35:52.199Z,102623.30
2018-12-27T05:38:20.665Z,102628.86
2018-12-27T05:40:49.273Z,102629.81
2018-12-27T05:43:17.813Z,102633.75
2018-12-27T05:45:47.084Z,102636.29
2018-12-27T05:48:15.711Z,102639.09
2018-12-27T05:50:44.199Z,102640.86
2018-12-27T05:53:12.844Z,102641.69
2018-12-27T05:55:41.389Z,102631.26
2018-12-27T05:58:09.851Z,102641.92
2018-12-27T06:00:38.378Z,102638.72
2018-12-27T06:03:06.887Z,102633.98
2018-12-27T06:05:35.442Z,102636.63
2018-12-27T06:08:04.039Z,102636.97
2018-12-27T06:10:32.541Z,102640.27
2018-12-27T06:13:01.025Z,102641.82
2018-12-27T06:15:29.561Z,102635.05
2018-12-27T06:17:58.151Z,102644.38
2018-12-27T06:20:26.619Z,102646.14
2018-12-27T06:22:55.249Z,102645.56
2018-12-27T06:25:23.789Z,102647.72
2018-12-27T06:27:52.425Z,102647.65
2018-12-27T06:30:20.903Z,102646.27
2018-12-27T06:32:49.398Z,102644.20
2018-12-27T06:35:18.122Z,102646.75
2018-12-27T06:37:46.762Z,102645.18
2018-12-27T06:40:15.320Z,102642.58
2018-12-27T06:42:43.832Z,102648.34
2018-12-27T06:45:12.434Z,102642.63
2018-12-27T06:47:40.976Z,102645.88
2018-12-27T06:50:09.571Z,102638.12
2018-12-27T06:52:38.101Z,102640.44
2018-12-27T06:55:06.716Z,102651.55
2018-12-27T06:57:35.227Z,102652.86
2018-12-27T07:00:05.460Z,102646.30
2018-12-27T07:02:34.156Z,102634.84
2018-12-27T07:05:02.764Z,102639.44
2018-12-27T07:07:31.380Z,102636.70
2018-12-27T07:09:59.896Z,102636.70
2018-12-27T07:12:28.449Z,102637.50
2018-12-27T07:14:56.918Z,102633.98
2018-12-27T07:17:25.511Z,102641.79
2018-12-27T07:19:54.070Z,102634.59
2018-12-27T07:22:22.624Z,102641.57
2018-12-27T07:24:51.203Z,102644.34
2018-12-27T07:27:19.761Z,102643.59
2018-12-27T07:29:48.390Z,102642.43
2018-12-27T07:32:16.906Z,102649.43
2018-12-27T07:34:45.504Z,102655.36
2018-12-27T07:37:14.052Z,102659.12
2018-12-27T07:39:42.599Z,102657.97
2018-12-27T07:42:11.133Z,102660.68
2018-12-27T07:44:39.659Z,102657.89
2018-12-27T07:47:08.332Z,102656.85
2018-12-27T07:49:36.902Z,102650.67
2018-12-27T07:52:05.599Z,102656.93
2018-12-27T07:54:34.073Z,102648.19
2018-12-27T07:57:02.618Z,102650.52
2018-12-27T07:59:31.137Z,102654.26
2018-12-27T08:01:59.769Z,102643.84
2018-12-27T08:04:28.279Z,102643.50
2018-12-27T08:06:56.762Z,102643.84
2018-12-27T08:09:25.336Z,102644.95
2018-12-27T08:11:53.874Z,102645.41
2018-12-27T08:14:22.557Z,102643.08
2018-12-27T08:16:51.189Z,102635.58
2018-12-27T08:19:19.832Z,102631.11
2018-12-27T08:21:48.333Z,102631.88
2018-12-27T08:24:16.954Z,102621.20
2018-12-27T08:26:45.486Z,102618.95
2018-12-27T08:29:14.116Z,102617.89
2018-12-27T08:31:42.737Z,102625.38
2018-12-27T08:34:11.282Z,102623.70
2018-12-27T08:36:39.833Z,102620.39
2018-12-27T08:39:08.338Z,102621.35
2018-12-27T08:41:36.928Z,102614.28
2018-12-27T08:44:05.542Z,102610.20
2018-12-27T08:46:34.161Z,102599.84
2018-12-27T08:49:02.759Z,102591.56
2018-12-27T08:51:31.328Z,102598.39
2018-12-27T08:53:59.991Z,102593.59
2018-12-27T08:56:28.545Z,102589.45
2018-12-27T08:58:57.072Z,102595.14
2018-12-27T09:01:25.625Z,102593.75
2018-12-27T09:03:54.146Z,102592.87
2018-12-27T09:06:22.645Z,102590.28
2018-12-27T09:08:51.216Z,102587.75
2018-12-27T09:11:19.743Z,102586.91
2018-12-27T09:13:48.320Z,102584.53
2018-12-27T09:16:16.846Z,102586.52
2018-12-27T09:18:45.404Z,102580.31
2018-12-27T09:21:13.992Z,102576.94
2018-12-27T09:23:42.547Z,102580.32
2018-12-27T09:26:11.085Z,102584.14
2018-12-27T09:28:39.684Z,102592.84
2018-12-27T09:31:08.232Z,102595.67
2018-12-27T09:33:36.777Z,102585.20
2018-12-27T09:36:05.350Z,102587.43
2018-12-27T09:38:33.912Z,102582.89
2018-12-27T09:41:02.949Z,102581.30
2018-12-27T09:43:31.521Z,102585.27
2018-12-27T09:46:00.141Z,102586.33
2018-12-27T09:48:28.811Z,102588.02
2018-12-27T09:50:57.350Z,102580.28
2018-12-27T09:53:25.870Z,102582.84
2018-12-27T09:55:54.453Z,102583.40
2018-12-27T09:58:23.008Z,102586.99
2018-12-27T10:00:51.448Z,102585.80
2018-12-27T10:03:19.993Z,102584.15
2018-12-27T10:05:48.601Z,102581.94
2018-12-27T10:08:17.122Z,102578.69
2018-12-27T10:10:45.643Z,102585.38
2018-12-27T10:13:14.245Z,102582.59
2018-12-27T10:15:42.802Z,102570.91
2018-12-27T10:18:11.408Z,102568.63
2018-12-27T10:20:39.975Z,102561.84
2018-12-27T10:23:08.508Z,102560.38
2018-12-27T10:25:37.087Z,102553.42
2018-12-27T10:28:06.037Z,102562.96
2018-12-27T10:30:34.698Z,102573.16
2018-12-27T10:33:03.313Z,102576.02
2018-12-27T10:35:31.905Z,102574.23
2018-12-27T10:38:00.445Z,102563.33
2018-12-27T10:40:28.975Z,102570.00
2018-12-27T10:42:57.531Z,102562.06
2018-12-27T10:45:26.005Z,102562.55
2018-12-27T10:47:54.503Z,102560.50
2018-12-27T10:50:23.134Z,102554.45
2018-12-27T10:52:51.719Z,102552.70
2018-12-27T10:55:20.275Z,102547.75
2018-12-27T10:57:48.912Z,102550.45
2018-12-27T11:00:17.602Z,102545.30
2018-12-27T11:02:46.242Z,102540.30
2018-12-27T11:05:14.822Z,102538.19
2018-12-27T11:07:43.543Z,102523.08
2018-12-27T11:10:12.070Z,102535.37
2018-12-27T11:12:40.741Z,102521.91
2018-12-27T11:15:09.516Z,102514.63
2018-12-27T11:17:37.957Z,102506.81
2018-12-27T11:20:06.787Z,102507.85
2018-12-27T11:22:35.353Z,102496.48
2018-12-27T11:25:04.147Z,102497.41
2018-12-27T11:27:32.663Z,102486.36
2018-12-27T11:30:01.279Z,102485.41
2018-12-27T11:32:29.918Z,102476.88
2018-12-27T11:34:58.447Z,102479.11
2018-12-27T11:37:26.942Z,102470.17
2018-12-27T11:39:55.490Z,102460.33
2018-12-27T11:42:24.074Z,102457.42
2018-12-27T11:44:52.665Z,102461.44
2018-12-27T11:47:21.182Z,102462.12
2018-12-27T11:49:49.767Z,102462.88
2018-12-27T11:52:18.237Z,102461.91
2018-12-27T11:54:46.747Z,102460.65
2018-12-27T11:57:15.306Z,102459.80
2018-12-27T11:59:43.780Z,102447.23
2018-12-27T12:02:12.270Z,102447.94
2018-12-27T12:04:40.898Z,102449.53
2018-12-27T12:07:09.508Z,102447.80
2018-12-27T12:09:38.109Z,102427.02
2018-12-27T12:12:06.689Z,102421.10
2018-12-27T12:14:35.214Z,102427.53
2018-12-27T12:17:03.680Z,102427.17
2018-12-27T12:19:32.226Z,102429.65
2018-12-27T12:22:00.805Z,102430.29
2018-12-27T12:24:29.311Z,102437.42
2018-12-27T12:26:57.945Z,102447.36
2018-12-27T12:29:26.545Z,102448.11
2018-12-27T12:31:56.357Z,102446.56
2018-12-27T12:34:24.912Z,102444.11
2018-12-27T12:36:54.120Z,102436.87
2018-12-27T12:39:22.701Z,102433.72
2018-12-27T12:41:51.324Z,102440.22
2018-12-27T12:44:19.835Z,102443.41
2018-12-27T12:46:48.424Z,102441.63
2018-12-27T12:49:16.995Z,102437.39
2018-12-27T12:51:45.748Z,102438.61
2018-12-27T12:54:14.233Z,102440.35
2018-12-27T12:56:42.851Z,102434.67
2018-12-27T12:59:11.362Z,102442.25
2018-12-27T13:01:39.986Z,102451.13
2018-12-27T13:04:08.626Z,102446.80
2018-12-27T13:06:37.222Z,102439.25
2018-12-27T13:09:07.130Z,102444.63
2018-12-27T13:11:35.751Z,102446.45
2018-12-27T13:14:04.398Z,102449.39
2018-12-27T13:16:33.206Z,102443.41
2018-12-27T13:19:01.904Z,102442.34
2018-12-27T13:21:30.447Z,102448.84
2018-12-27T13:23:59.048Z,102452.11
2018-12-27T13:26:27.579Z,102447.25
2018-12-27T13:28:56.285Z,102445.56
2018-12-27T13:31:24.868Z,102441.16
2018-12-27T13:33:53.485Z,102432.15
2018-12-27T13:36:25.304Z,102429.73
2018-12-27T13:38:52.274Z,102430.92
2018-12-27T13:41:20.846Z,102432.72
2018-12-27T13:43:49.540Z,102423.77
2018-12-27T13:46:18.099Z,102437.19
2018-12-27T13:48:46.742Z,102438.69
2018-12-27T13:51:15.326Z,102442.38
2018-12-27T13:53:44.408Z,102430.58
2018-12-27T13:56:13.013Z,102433.33
2018-12-27T13:58:41.498Z,102438.53
2018-12-27T14:01:10.119Z,102440.45
2018-12-27T14:03:38.665Z,102441.23
2018-12-27T14:06:07.211Z,102441.31
2018-12-27T14:08:35.922Z,102442.20
2018-12-27T14:11:04.513Z,102446.41
2018-12-27T14:13:33.166Z,102439.38
2018-12-27T14:16:01.817Z,102440.45
2018-12-27T14:18:30.252Z,102444.05
2018-12-27T14:20:58.846Z,102440.73
2018-12-27T14:23:27.412Z,102446.01
2018-12-27T14:25:56.016Z,102448.88
2018-12-27T14:28:24.501Z,102450.84
2018-12-27T14:30:53.096Z,102464.29
2018-12-27T14:33:21.683Z,102460.63
2018-12-27T14:35:50.278Z,102461.66
2018-12-27T14:38:18.788Z,102458.23
2018-12-27T14:40:47.292Z,102460.13
2018-12-27T14:43:15.922Z,102462.14
2018-12-27T14:45:44.609Z,102451.26
2018-12-27T14:48:13.227Z,102443.97
2018-12-27T14:50:41.721Z,102438.32
2018-12-27T14:53:10.377Z,102448.20
2018-12-27T14:55:39.079Z,102439.25
2018-12-27T14:58:07.618Z,102439.33
2018-12-27T15:00:36.271Z,102453.30
2018-12-27T15:03:04.887Z,102455.30
2018-12-27T15:07:54.711Z,102455.30
2018-12-27T15:10:23.322Z,102450.91
2018-12-27T15:12:51.828Z,102457.07
2018-12-27T15:15:20.446Z,102455.33
2018-12-27T15:17:49.049Z,102466.77
2018-12-27T15:20:17.592Z,102466.06
2018-12-27T15:22:46.257Z,102463.44
2018-12-27T15:25:14.892Z,102465.33
2018-12-27T15:27:43.462Z,102462.85
2018-12-27T15:30:12.050Z,102464.34
2018-12-27T15:32:40.636Z,102453.18
2018-12-27T15:35:09.168Z,102456.48
2018-12-27T15:37:37.834Z,102450.70
2018-12-27T15:40:07.469Z,102446.22
2018-12-27T15:42:36.091Z,102446.03
2018-12-27T15:45:05.122Z,102449.90
2018-12-27T15:47:33.652Z,102442.95
2018-12-27T15:50:02.204Z,102441.30
2018-12-27T15:52:30.780Z,102448.27
2018-12-27T15:54:59.474Z,102440.45
2018-12-27T15:57:28.059Z,102445.97
2018-12-27T15:59:56.670Z,102446.03
2018-12-27T16:02:25.334Z,102447.31
2018-12-27T16:04:53.857Z,102439.18
2018-12-27T16:07:22.491Z,102445.16
2018-12-27T16:09:50.962Z,102441.97
2018-12-27T16:12:19.556Z,102437.85
2018-12-27T16:14:48.036Z,102441.69
2018-12-27T16:17:16.516Z,102451.99
2018-12-27T16:19:45.185Z,102447.75
2018-12-27T16:22:13.746Z,102448.81
2018-12-27T16:24:42.399Z,102445.49
2018-12-27T16:27:10.945Z,102445.27
2018-12-27T16:29:39.576Z,102439.48
2018-12-27T16:32:08.271Z,102444.51
2018-12-27T16:34:36.890Z,102440.34
2018-12-27T16:37:08.873Z,102447.39
2018-12-27T16:39:35.847Z,102440.85
2018-12-27T16:42:04.482Z,102443.72
2018-12-27T16:44:33.220Z,102449.03
2018-12-27T16:47:02.006Z,102438.05
2018-12-27T16:49:30.573Z,102436.03
2018-12-27T16:51:59.252Z,102433.80
2018-12-27T16:54:27.959Z,102442.81
2018-12-27T16:56:56.650Z,102444.66
2018-12-27T16:59:25.382Z,102443.36
2018-12-27T17:01:54.053Z,102443.22
2018-12-27T17:04:22.699Z,102439.17
2018-12-27T17:06:51.467Z,102436.42
2018-12-27T17:09:20.163Z,102435.98
2018-12-27T17:11:49.867Z,102441.88
2018-12-27T17:14:18.640Z,102440.87
2018-12-27T17:16:47.255Z,102440.21
2018-12-27T17:19:15.968Z,102440.21
2018-12-27T17:21:45.551Z,102439.94
2018-12-27T17:24:14.222Z,102441.16
2018-12-27T17:26:42.848Z,102436.19
2018-12-27T17:29:11.491Z,102430.56
2018-12-27T17:31:40.094Z,102438.14
2018-12-27T17:34:08.843Z,102437.73
2018-12-27T17:36:37.530Z,102444.27
2018-12-27T17:39:07.020Z,102440.63
2018-12-27T17:41:35.683Z,102439.05
2018-12-27T17:44:04.400Z,102437.44
2018-12-27T17:46:33.171Z,102445.31
2018-12-27T17:49:01.790Z,102437.67
2018-12-27T17:51:30.555Z,102441.76
2018-12-27T17:53:59.182Z,102444.28
2018-12-27T17:56:27.902Z,102440.83
2018-12-27T17:58:56.640Z,102442.02
2018-12-27T18:01:25.327Z,102442.34
2018-12-27T18:03:53.981Z,102436.07
2018-12-27T18:06:22.590Z,102442.50
2018-12-27T18:08:51.213Z,102441.41
2018-12-27T18:11:19.859Z,102456.73
2018-12-27T18:13:48.451Z,102448.41
2018-12-27T18:16:17.122Z,102450.81
2018-12-27T18:18:45.819Z,102444.27
2018-12-27T18:21:14.476Z,102436.05
2018-12-27T18:23:43.188Z,102432.82
2018-12-27T18:26:14.694Z,102429.60
2018-12-27T18:28:43.418Z,102436.27
2018-12-27T18:31:12.032Z,102428.66
2018-12-27T18:33:40.617Z,102437.44
2018-12-27T18:36:09.470Z,102442.91
2018-12-27T18:38:38.256Z,102439.78
2018-12-27T18:41:07.868Z,102447.77
2018-12-27T18:43:36.470Z,102454.06
2018-12-27T18:46:05.032Z,102462.66
2018-12-27T18:48:33.624Z,102465.47
2018-12-27T18:51:02.350Z,102466.09
2018-12-27T18:53:30.949Z,102473.07
2018-12-27T18:55:59.604Z,102475.20
2018-12-27T18:58:28.234Z,102469.30
2018-12-27T19:00:56.830Z,102471.19
2018-12-27T19:03:25.562Z,102470.91
2018-12-27T19:05:54.176Z,102469.38
2018-12-27T19:08:22.812Z,102467.05
2018-12-27T19:11:27.827Z,102465.53
2018-12-27T19:13:56.520Z,102472.56
2018-12-27T19:16:25.206Z,102470.92
2018-12-27T19:18:53.856Z,102474.95
2018-12-27T19:21:22.526Z,102479.53
2018-12-27T19:23:51.173Z,102477.33
2018-12-27T19:26:19.716Z,102473.72
2018-12-27T19:28:48.352Z,102468.58
2018-12-27T19:31:17.146Z,102473.81
2018-12-27T19:33:46.246Z,102475.41
2018-12-27T19:36:14.917Z,102476.33
2018-12-27T19:38:43.582Z,102475.09
2018-12-27T19:41:12.257Z,102478.18
2018-12-27T19:43:40.903Z,102477.97
2018-12-27T19:46:09.567Z,102474.55
2018-12-27T19:48:38.304Z,102471.56
2018-12-27T19:51:07.055Z,102468.73
2018-12-27T19:53:35.748Z,102473.86
2018-12-27T19:56:04.412Z,102471.31
2018-12-27T19:58:33.066Z,102468.53
2018-12-27T20:01:01.706Z,102477.20
2018-12-27T20:03:30.411Z,102471.49
2018-12-27T20:05:58.903Z,102470.50
2018-12-27T20:08:27.674Z,102464.42
2018-12-27T20:10:56.441Z,102455.39
2018-12-27T20:13:25.191Z,102451.95
2018-12-27T20:15:53.850Z,102454.38
2018-12-27T20:18:23.697Z,102449.18
2018-12-27T20:20:52.407Z,102441.49
2018-12-27T20:23:21.014Z,102448.53
2018-12-27T20:25:49.760Z,102448.30
2018-12-27T20:28:18.351Z,102453.02
2018-12-27T20:30:46.906Z,102461.72
2018-12-27T20:33:16.545Z,102463.03
2018-12-27T20:35:48.035Z,102459.52
2018-12-27T20:38:16.833Z,102451.84
2018-12-27T20:40:45.481Z,102457.42
2018-12-27T20:43:14.151Z,102457.25
2018-12-27T20:45:42.836Z,102458.84
2018-12-27T20:48:11.443Z,102454.17
2018-12-27T20:50:40.189Z,102456.53
2018-12-27T20:53:08.917Z,102454.60
2018-12-27T20:55:37.530Z,102455.89
2018-12-27T20:58:06.155Z,102458.00
2018-12-27T21:00:34.872Z,102455.77
2018-12-27T21:03:03.592Z,102457.42
2018-12-27T21:05:32.309Z,102452.48
2018-12-27T21:08:00.988Z,102462.46
2018-12-27T21:10:29.758Z,102464.22
2018-12-27T21:12:58.300Z,102464.55
2018-12-27T21:15:26.989Z,102462.28
2018-12-27T21:17:57.147Z,102458.96
2018-12-27T21:20:25.841Z,102458.55
2018-12-27T21:22:54.449Z,102459.75
2018-12-27T21:25:23.171Z,102463.58
2018-12-27T21:27:51.914Z,102457.14
2018-12-27T21:30:20.478Z,102460.13
2018-12-27T21:32:49.180Z,102456.91
2018-12-27T21:35:17.793Z,102466.50
2018-12-27T21:37:47.125Z,102463.09
2018-12-27T21:40:15.811Z,102464.09
2018-12-27T21:42:44.458Z,102472.34
2018-12-27T21:45:14.617Z,102478.75
2018-12-27T21:47:43.325Z,102470.33
2018-12-27T21:50:11.910Z,102465.69
2018-12-27T21:52:40.461Z,102467.83
2018-12-27T21:55:09.040Z,102465.38
2018-12-27T21:57:37.736Z,102473.70
2018-12-27T22:00:09.268Z,102476.34
2018-12-27T22:02:38.012Z,102480.56
2018-12-27T22:05:06.605Z,102484.08
2018-12-27T22:07:35.405Z,102480.27
2018-12-27T22:10:06.624Z,102490.00
2018-12-27T22:12:35.257Z,102489.83
2018-12-27T22:15:03.847Z,102498.11
2018-12-27T22:17:32.417Z,102493.22
2018-12-27T22:20:00.968Z,102494.23
2018-12-27T22:22:29.611Z,102485.27
2018-12-27T22:24:58.170Z,102486.29
2018-12-27T22:27:26.745Z,102479.89
2018-12-27T22:29:55.305Z,102481.40
2018-12-27T22:32:23.821Z,102480.67
2018-12-27T22:34:52.425Z,102476.63
2018-12-27T22:37:20.950Z,102483.89
2018-12-27T22:39:49.455Z,102482.88
2018-12-27T22:42:18.045Z,102482.30
2018-12-27T22:44:47.259Z,102488.99
2018-12-27T22:47:15.857Z,102483.13
2018-12-27T22:49:44.357Z,102489.14
2018-12-27T22:52:12.940Z,102484.81
2018-12-27T22:54:41.626Z,102482.37
2018-12-27T22:57:10.215Z,102488.34
2018-12-27T22:59:38.854Z,102476.50
2018-12-27T23:02:07.530Z,102473.78
2018-12-27T23:04:36.098Z,102465.09
2018-12-27T23:07:04.654Z,102469.03
2018-12-27T23:09:33.235Z,102469.45
2018-12-27T23:12:01.862Z,102464.98
2018-12-27T23:14:30.458Z,102464.84
2018-12-27T23:16:58.949Z,102464.03
2018-12-27T23:19:27.574Z,102461.42
2018-12-27T23:21:56.162Z,102454.95
2018-12-27T23:24:24.676Z,102457.91
2018-12-27T23:26:53.274Z,102460.66
2018-12-27T23:29:21.772Z,102459.32
2018-12-27T23:31:50.338Z,102461.95
2018-12-27T23:34:18.855Z,102457.39
2018-12-27T23:36:47.546Z,102461.19
2018-12-27T23:39:16.135Z,102441.38
2018-12-27T23:41:44.587Z,102441.38
2018-12-27T23:44:13.226Z,102452.61
2018-12-27T23:46:41.696Z,102451.41
2018-12-27T23:49:10.244Z,102450.37
2018-12-27T23:51:38.889Z,102442.91
2018-12-27T23:54:07.330Z,102441.73
2018-12-27T23:56:35.954Z,102438.44
2018-12-27T23:59:04.557Z,102439.06
